Time;durP1;ratioP1;P1;durP2;ratioP2;P2;SDS_P1;SDS_P2;PMS_P1;PMS_P2;Temp;Humidity;BMP_temperature;BMP_pressure;BME280_temperature;BME280_humidity;BME280_pressure;Samples;Min_cycle;Max_cycle;Signal;HPM_P1;HPM_P2
2022/04/25 00:00:57;;;;;;;10.35;3.88;;;;;;;;;;5093076;28;20048;-88
2022/04/25 00:03:22;;;;;;;7.30;3.40;;;;;;;;;;5092923;28;20073;-89
2022/04/25 00:05:47;;;;;;;11.00;4.00;;;;;;;;;;5092779;28;20032;-87
2022/04/25 00:08:13;;;;;;;8.63;3.55;;;;;;;;;;5093003;28;20472;-86
2022/04/25 00:10:38;;;;;;;12.00;4.03;;;;;;;;;;5092909;28;20024;-89
2022/04/25 00:13:04;;;;;;;11.45;3.22;;;;;;;;;;5093793;28;20027;-87
2022/04/25 00:15:29;;;;;;;13.30;4.80;;;;;;;;;;5092701;28;20065;-87
2022/04/25 00:17:55;;;;;;;9.73;4.30;;;;;;;;;;5093532;28;20387;-87
2022/04/25 00:20:21;;;;;;;10.63;4.75;;;;;;;;;;5093555;28;20109;-89
2022/04/25 00:22:46;;;;;;;12.60;4.03;;;;;;;;;;5093536;28;20035;-88
2022/04/25 00:25:13;;;;;;;7.13;3.28;;;;;;;;;;5092967;28;20024;-89
2022/04/25 00:27:38;;;;;;;11.32;4.10;;;;;;;;;;5093794;28;20027;-87
2022/04/25 00:30:04;;;;;;;11.02;3.58;;;;;;;;;;5093415;28;20440;-90
2022/04/25 00:32:30;;;;;;;8.10;3.78;;;;;;;;;;5093533;28;20028;-87
2022/04/25 00:34:55;;;;;;;7.57;3.63;;;;;;;;;;5092309;28;20027;-86
2022/04/25 00:37:21;;;;;;;6.53;3.22;;;;;;;;;;5093223;28;20111;-87
2022/04/25 00:39:46;;;;;;;10.25;3.35;;;;;;;;;;5092121;28;20031;-89
2022/04/25 00:42:15;;;;;;;12.18;3.78;;;;;;;;;;5092560;28;20035;-91
2022/04/25 00:44:44;;;;;;;9.93;3.65;;;;;;;;;;5092169;28;20035;-88
2022/04/25 00:47:09;;;;;;;11.27;3.58;;;;;;;;;;5092887;28;20364;-88
2022/04/25 00:49:35;;;;;;;10.40;3.80;;;;;;;;;;5092866;28;20041;-88
2022/04/25 00:52:01;;;;;;;9.82;3.38;;;;;;;;;;5092586;28;20027;-89
2022/04/25 00:54:27;;;;;;;7.22;3.50;;;;;;;;;;5091838;28;20034;-89
2022/04/25 00:56:52;;;;;;;11.65;3.58;;;;;;;;;;5092431;28;20859;-88
2022/04/25 00:59:21;;;;;;;8.23;3.78;;;;;;;;;;5091824;28;20028;-88
2022/04/25 01:01:46;;;;;;;6.88;3.00;;;;;;;;;;5092925;28;20378;-87
2022/04/25 01:04:12;;;;;;;8.02;3.40;;;;;;;;;;5091790;28;20107;-90
2022/04/25 01:06:38;;;;;;;9.85;3.05;;;;;;;;;;5091402;28;20020;-88
2022/04/25 01:09:05;;;;;;;8.65;4.05;;;;;;;;;;5087457;28;20036;-90
2022/04/25 01:11:30;;;;;;;7.53;3.40;;;;;;;;;;5091493;28;20034;-88
2022/04/25 01:13:56;;;;;;;11.10;4.25;;;;;;;;;;5091320;28;20028;-89
2022/04/25 01:16:21;;;;;;;7.38;4.03;;;;;;;;;;5093102;28;20024;-90
2022/04/25 01:18:47;;;;;;;7.13;3.38;;;;;;;;;;5091369;28;20054;-89
2022/04/25 01:21:14;;;;;;;9.20;3.50;;;;;;;;;;5091487;28;20479;-89
2022/04/25 01:29:09;;;;;;;7.80;3.60;;;;;;;;;;5091964;28;20094;-89
2022/04/25 01:31:35;;;;;;;11.52;3.13;;;;;;;;;;5090880;28;20039;-88
2022/04/25 01:34:04;;;;;;;14.35;3.70;;;;;;;;;;5092772;28;20054;-88
2022/04/25 01:36:30;;;;;;;9.85;3.83;;;;;;;;;;5091493;28;20132;-90
2022/04/25 01:38:56;;;;;;;10.27;3.85;;;;;;;;;;5092583;28;20077;-90
2022/04/25 01:41:22;;;;;;;7.32;3.65;;;;;;;;;;5092656;28;20024;-92
2022/04/25 01:43:52;;;;;;;11.75;4.32;;;;;;;;;;5092018;28;20459;-90
2022/04/25 01:46:18;;;;;;;10.07;3.45;;;;;;;;;;5091700;28;20115;-88
2022/04/25 01:48:43;;;;;;;9.70;3.90;;;;;;;;;;5091225;28;20443;-87
2022/04/25 01:51:10;;;;;;;7.85;3.40;;;;;;;;;;5092514;28;20093;-89
2022/04/25 01:53:36;;;;;;;13.30;4.13;;;;;;;;;;5092040;28;20020;-87
2022/04/25 01:56:01;;;;;;;9.50;4.20;;;;;;;;;;5090952;28;20433;-87
2022/04/25 01:58:27;;;;;;;11.90;4.03;;;;;;;;;;5092102;28;20020;-88
2022/04/25 02:00:54;;;;;;;11.27;4.38;;;;;;;;;;5091601;28;20019;-88
2022/04/25 02:03:19;;;;;;;9.60;3.95;;;;;;;;;;5090182;28;20027;-87
2022/04/25 02:05:45;;;;;;;9.57;4.97;;;;;;;;;;5092607;28;20020;-88
2022/04/25 02:08:10;;;;;;;7.32;3.55;;;;;;;;;;5091950;28;20059;-86
2022/04/25 02:10:36;;;;;;;9.20;3.80;;;;;;;;;;5090657;28;20031;-87
2022/04/25 02:13:01;;;;;;;12.65;4.63;;;;;;;;;;5091827;28;20384;-89
2022/04/25 02:15:27;;;;;;;8.57;3.80;;;;;;;;;;5090747;28;20498;-87
2022/04/25 02:17:53;;;;;;;12.38;4.63;;;;;;;;;;5090626;28;20024;-89
2022/04/25 02:20:18;;;;;;;9.43;4.43;;;;;;;;;;5090285;28;20088;-88
2022/04/25 02:22:44;;;;;;;13.55;4.05;;;;;;;;;;5090485;28;20039;-88
2022/04/25 02:25:10;;;;;;;12.68;4.10;;;;;;;;;;5092076;28;20035;-88
2022/04/25 02:27:36;;;;;;;11.52;4.32;;;;;;;;;;5090681;28;20024;-89
2022/04/25 02:30:02;;;;;;;14.05;4.30;;;;;;;;;;5090737;28;20121;-88
2022/04/25 02:32:28;;;;;;;12.15;3.75;;;;;;;;;;5090509;28;20024;-87
2022/04/25 02:34:57;;;;;;;12.55;4.13;;;;;;;;;;5089674;28;20027;-85
2022/04/25 02:37:24;;;;;;;6.97;4.00;;;;;;;;;;5090781;28;20040;-85
2022/04/25 02:39:50;;;;;;;8.70;4.10;;;;;;;;;;5089969;28;20077;-87
2022/04/25 02:42:16;;;;;;;13.85;4.68;;;;;;;;;;5091538;28;20036;-87
2022/04/25 02:44:54;;;;;;;9.38;4.07;;;;;;;;;;5092109;28;20024;-88
2022/04/25 02:47:19;;;;;;;9.93;4.22;;;;;;;;;;5091937;28;20024;-89
2022/04/25 02:49:44;;;;;;;10.63;4.47;;;;;;;;;;5090514;28;20035;-88
2022/04/25 02:52:10;;;;;;;12.45;4.93;;;;;;;;;;5090481;28;20392;-90
2022/04/25 02:54:36;;;;;;;7.43;3.70;;;;;;;;;;5089933;28;20034;-87
2022/04/25 02:57:02;;;;;;;9.23;4.15;;;;;;;;;;5093724;28;20039;-89
2022/04/25 02:59:27;;;;;;;12.50;5.63;;;;;;;;;;5095106;28;20016;-87
2022/04/25 03:01:53;;;;;;;11.30;3.95;;;;;;;;;;5093832;28;20364;-89
2022/04/25 03:04:18;;;;;;;12.50;4.40;;;;;;;;;;5095131;28;20024;-87
2022/04/25 03:06:44;;;;;;;10.00;4.30;;;;;;;;;;5093601;28;20032;-88
2022/04/25 03:09:09;;;;;;;10.13;4.07;;;;;;;;;;5093875;28;20027;-89
2022/04/25 03:11:35;;;;;;;8.68;4.10;;;;;;;;;;5093800;28;20032;-87
2022/04/25 03:14:01;;;;;;;8.52;3.90;;;;;;;;;;5095104;28;20031;-88
2022/04/25 03:16:28;;;;;;;12.10;4.43;;;;;;;;;;5094879;28;20445;-88
2022/04/25 03:18:53;;;;;;;9.00;3.78;;;;;;;;;;5093618;28;20077;-88
2022/04/25 03:21:19;;;;;;;8.25;3.60;;;;;;;;;;5092841;28;20122;-87
2022/04/25 03:23:44;;;;;;;7.50;3.60;;;;;;;;;;5093424;28;20031;-87
2022/04/25 03:26:10;;;;;;;12.73;3.35;;;;;;;;;;5095004;28;20039;-86
2022/04/25 03:28:35;;;;;;;10.00;3.58;;;;;;;;;;5094539;28;20020;-86
2022/04/25 03:31:05;;;;;;;8.70;3.60;;;;;;;;;;5093516;28;20031;-87
2022/04/25 03:33:31;;;;;;;9.43;4.70;;;;;;;;;;5093326;28;20028;-89
2022/04/25 03:35:57;;;;;;;12.38;3.88;;;;;;;;;;5094291;28;20146;-86
2022/04/25 03:38:23;;;;;;;8.40;4.15;;;;;;;;;;5093101;28;20031;-88
2022/04/25 03:40:48;;;;;;;17.58;4.50;;;;;;;;;;5093078;28;20529;-89
2022/04/25 03:43:15;;;;;;;9.50;4.15;;;;;;;;;;5093090;28;20032;-87
2022/04/25 03:45:41;;;;;;;9.05;3.83;;;;;;;;;;5094635;28;20016;-87
2022/04/25 03:48:07;;;;;;;7.53;4.20;;;;;;;;;;5093913;28;20105;-86
2022/04/25 03:50:33;;;;;;;14.35;4.03;;;;;;;;;;5094465;28;20098;-86
2022/04/25 03:53:05;;;;;;;8.57;3.97;;;;;;;;;;5092971;28;20028;-85
2022/04/25 03:58:14;;;;;;;14.80;5.13;;;;;;;;;;5094090;28;20093;-86
2022/04/25 04:00:40;;;;;;;12.05;4.85;;;;;;;;;;5092820;28;20055;-87
2022/04/25 04:03:06;;;;;;;15.93;5.30;;;;;;;;;;5092763;28;20393;-88
2022/04/25 04:05:32;;;;;;;12.85;5.13;;;;;;;;;;5092925;28;20434;-88
2022/04/25 04:07:57;;;;;;;13.02;5.05;;;;;;;;;;5093575;28;20024;-87
2022/04/25 04:10:23;;;;;;;11.13;5.13;;;;;;;;;;5092578;28;20027;-89
2022/04/25 04:12:48;;;;;;;9.23;4.53;;;;;;;;;;5091147;28;20020;-88
2022/04/25 04:15:16;;;;;;;10.88;4.63;;;;;;;;;;5094027;28;20028;-88
2022/04/25 04:17:42;;;;;;;9.23;4.78;;;;;;;;;;5092221;28;20016;-88
2022/04/25 04:20:08;;;;;;;14.50;4.88;;;;;;;;;;5092536;28;20063;-88
2022/04/25 04:22:36;;;;;;;13.85;4.35;;;;;;;;;;5093787;28;20031;-87
2022/04/25 04:25:11;;;;;;;10.75;4.95;;;;;;;;;;5093708;28;20024;-88
2022/04/25 04:27:37;;;;;;;15.07;4.63;;;;;;;;;;5087550;28;20115;-88
2022/04/25 04:30:06;;;;;;;10.52;4.60;;;;;;;;;;5093661;28;20512;-87
2022/04/25 04:32:32;;;;;;;12.73;5.13;;;;;;;;;;5092357;28;20116;-91
2022/04/25 04:34:58;;;;;;;17.02;4.25;;;;;;;;;;5093555;28;20023;-87
2022/04/25 04:37:32;;;;;;;11.02;4.95;;;;;;;;;;5093247;28;20474;-87
2022/04/25 04:42:42;;;;;;;13.57;5.57;;;;;;;;;;5091232;28;20520;-89
2022/04/25 04:45:08;;;;;;;14.52;4.55;;;;;;;;;;5092032;28;20024;-88
2022/04/25 04:47:39;;;;;;;12.98;5.78;;;;;;;;;;5093130;28;20111;-88
2022/04/25 04:50:06;;;;;;;14.63;5.22;;;;;;;;;;5092212;28;20056;-88
2022/04/25 04:52:32;;;;;;;13.25;5.32;;;;;;;;;;5091870;28;20031;-90
2022/04/25 04:54:57;;;;;;;8.45;3.42;;;;;;;;;;5093037;28;20391;-88
2022/04/25 04:57:23;;;;;;;12.13;4.30;;;;;;;;;;5089503;28;20046;-89
2022/04/25 04:59:48;;;;;;;8.70;4.07;;;;;;;;;;5091718;28;20105;-88
2022/04/25 05:02:16;;;;;;;14.27;4.18;;;;;;;;;;5091731;28;20024;-89
2022/04/25 05:04:41;;;;;;;10.55;4.13;;;;;;;;;;5091654;28;20057;-87
2022/04/25 05:07:07;;;;;;;10.10;4.10;;;;;;;;;;5092620;28;20024;-86
2022/04/25 05:09:32;;;;;;;11.35;4.40;;;;;;;;;;5091574;28;20403;-87
2022/04/25 05:11:58;;;;;;;11.30;4.82;;;;;;;;;;5092656;28;20095;-89
2022/04/25 05:14:23;;;;;;;13.05;4.00;;;;;;;;;;5092533;28;20020;-88
2022/04/25 05:16:48;;;;;;;11.68;3.85;;;;;;;;;;5091344;28;20028;-89
2022/04/25 05:19:14;;;;;;;10.57;4.18;;;;;;;;;;5091696;28;20024;-87
2022/04/25 05:21:40;;;;;;;9.85;3.80;;;;;;;;;;5090581;28;20118;-88
2022/04/25 05:24:06;;;;;;;9.13;4.15;;;;;;;;;;5091245;28;20109;-87
2022/04/25 05:26:31;;;;;;;12.98;3.92;;;;;;;;;;5088337;28;20475;-87
2022/04/25 05:28:57;;;;;;;14.27;4.38;;;;;;;;;;5089397;28;20031;-87
2022/04/25 05:31:23;;;;;;;10.93;5.25;;;;;;;;;;5089449;28;20036;-83
2022/04/25 05:33:49;;;;;;;12.25;4.47;;;;;;;;;;5091956;28;20055;-87
2022/04/25 05:36:14;;;;;;;14.23;5.35;;;;;;;;;;5087837;28;20055;-87
2022/04/25 05:38:40;;;;;;;11.40;4.65;;;;;;;;;;5085183;28;20055;-85
2022/04/25 05:41:07;;;;;;;10.65;5.10;;;;;;;;;;5089377;28;20058;-86
2022/04/25 05:43:33;;;;;;;15.77;5.55;;;;;;;;;;5090758;28;20071;-88
2022/04/25 05:45:58;;;;;;;12.85;5.55;;;;;;;;;;5091291;28;20020;-88
2022/04/25 05:53:52;;;;;;;13.05;4.97;;;;;;;;;;5089600;28;20108;-88
2022/04/25 05:56:17;;;;;;;16.60;5.05;;;;;;;;;;5090776;28;20028;-86
2022/04/25 05:58:42;;;;;;;14.80;5.13;;;;;;;;;;5088152;28;20480;-87
2022/04/25 06:01:08;;;;;;;14.18;4.57;;;;;;;;;;5090832;28;20028;-87
2022/04/25 06:03:33;;;;;;;15.65;5.28;;;;;;;;;;5089630;28;20435;-89
2022/04/25 06:05:59;;;;;;;11.35;4.50;;;;;;;;;;5090202;28;20123;-87
2022/04/25 06:08:24;;;;;;;11.10;5.07;;;;;;;;;;5088671;28;20484;-88
2022/04/25 06:10:50;;;;;;;15.48;5.65;;;;;;;;;;5090998;28;20039;-89
2022/04/25 06:13:15;;;;;;;13.57;4.90;;;;;;;;;;5090805;28;20032;-90
2022/04/25 06:15:45;;;;;;;16.45;4.93;;;;;;;;;;5091208;28;20019;-87
2022/04/25 06:18:10;;;;;;;14.10;5.55;;;;;;;;;;5090709;28;20047;-88
2022/04/25 06:20:37;;;;;;;14.82;5.13;;;;;;;;;;5090879;28;20471;-87
2022/04/25 06:23:02;;;;;;;13.30;5.03;;;;;;;;;;5091295;28;20028;-88
2022/04/25 06:25:29;;;;;;;17.23;5.40;;;;;;;;;;5090193;28;20036;-90
2022/04/25 06:28:01;;;;;;;12.32;4.85;;;;;;;;;;5092303;28;20394;-88
2022/04/25 06:30:29;;;;;;;12.57;4.63;;;;;;;;;;5091780;28;20016;-88
2022/04/25 06:32:56;;;;;;;11.57;4.70;;;;;;;;;;5094614;28;20038;-89
2022/04/25 06:35:21;;;;;;;13.60;4.43;;;;;;;;;;5094345;28;20027;-88
2022/04/25 06:37:47;;;;;;;14.70;4.28;;;;;;;;;;5094473;28;20371;-88
2022/04/25 06:40:14;;;;;;;10.35;3.80;;;;;;;;;;5094375;28;20032;-90
2022/04/25 06:43:04;;;;;;;13.25;4.38;;;;;;;;;;5095986;28;20111;-89
2022/04/25 06:45:30;;;;;;;14.20;4.75;;;;;;;;;;5095723;28;20028;-87
2022/04/25 06:47:55;;;;;;;15.05;4.30;;;;;;;;;;5094470;28;20035;-87
2022/04/25 06:50:21;;;;;;;18.08;4.50;;;;;;;;;;5094223;28;20387;-88
2022/04/25 06:52:46;;;;;;;11.18;4.03;;;;;;;;;;5095445;28;20027;-89
2022/04/25 06:55:12;;;;;;;13.98;4.45;;;;;;;;;;5094233;28;20024;-87
2022/04/25 06:57:38;;;;;;;13.50;4.57;;;;;;;;;;5095041;28;20036;-86
2022/04/25 07:00:08;;;;;;;19.50;4.35;;;;;;;;;;5094258;28;20067;-89
2022/04/25 07:02:35;;;;;;;13.48;3.85;;;;;;;;;;5095237;28;20119;-87
2022/04/25 07:05:00;;;;;;;17.90;4.40;;;;;;;;;;5092350;28;20032;-87
2022/04/25 07:07:26;;;;;;;10.05;4.20;;;;;;;;;;5093782;28;20020;-87
2022/04/25 07:09:51;;;;;;;11.43;3.60;;;;;;;;;;5093672;28;20028;-89
2022/04/25 07:12:17;;;;;;;18.90;4.35;;;;;;;;;;5093679;28;20238;-88
2022/04/25 07:14:42;;;;;;;15.30;3.75;;;;;;;;;;5095259;28;20036;-88
2022/04/25 07:17:07;;;;;;;13.85;4.25;;;;;;;;;;5093713;28;20047;-87
2022/04/25 07:19:33;;;;;;;15.10;5.10;;;;;;;;;;5094797;28;20111;-89
2022/04/25 07:30:10;;;;;;;12.15;3.70;;;;;;;;;;5093664;28;20078;-86
2022/04/25 07:32:40;;;;;;;14.73;3.90;;;;;;;;;;5094906;28;20028;-85
2022/04/25 07:35:06;;;;;;;45.95;29.02;;;;;;;;;;5094863;28;20363;-88
2022/04/25 07:37:33;;;;;;;17.73;6.68;;;;;;;;;;5094997;28;20036;-88
2022/04/25 07:40:00;;;;;;;15.43;4.10;;;;;;;;;;5094223;28;20551;-88
2022/04/25 07:42:25;;;;;;;23.90;8.48;;;;;;;;;;5093273;28;20035;-88
2022/04/25 07:44:51;;;;;;;14.30;4.30;;;;;;;;;;5093580;28;20032;-88
2022/04/25 07:47:16;;;;;;;61.88;41.08;;;;;;;;;;5092360;28;20441;-88
2022/04/25 07:49:42;;;;;;;19.35;10.88;;;;;;;;;;5093806;28;20416;-87
2022/04/25 07:52:08;;;;;;;23.42;13.73;;;;;;;;;;5093416;28;20078;-88
2022/04/25 07:54:34;;;;;;;133.02;110.88;;;;;;;;;;5093610;28;20403;-87
2022/04/25 07:57:00;;;;;;;26.05;14.52;;;;;;;;;;5092814;28;20081;-86
2022/04/25 07:59:26;;;;;;;79.68;55.05;;;;;;;;;;5091324;28;20028;-89
2022/04/25 08:01:52;;;;;;;24.55;13.90;;;;;;;;;;5089668;28;20391;-87
2022/04/25 08:04:17;;;;;;;39.80;22.90;;;;;;;;;;5086814;28;20024;-86
2022/04/25 08:06:51;;;;;;;31.48;18.55;;;;;;;;;;5091088;28;20031;-85
2022/04/25 08:23:26;;;;;;;;;;;;;;;;;;;;;
2022/04/25 08:26:33;;;;;;;18.65;3.83;;;;;;;;;;4992421;28;20046;-85
2022/04/25 08:28:59;;;;;;;17.80;7.75;;;;;;;;;;5004692;28;20194;-85
2022/04/25 08:31:28;;;;;;;22.77;8.52;;;;;;;;;;5068934;28;20036;-87
2022/04/25 08:33:55;;;;;;;43.17;18.27;;;;;;;;;;5071827;28;20416;-84
2022/04/25 08:36:20;;;;;;;13.65;5.82;;;;;;;;;;5093288;28;20109;-85
2022/04/25 08:38:46;;;;;;;18.05;3.00;;;;;;;;;;5090978;28;20032;-88
2022/04/25 08:41:17;;;;;;;75.30;37.20;;;;;;;;;;5091611;28;20031;-85
2022/04/25 08:43:44;;;;;;;21.02;4.40;;;;;;;;;;5091726;28;20059;-87
2022/04/25 08:46:11;;;;;;;12.88;3.97;;;;;;;;;;5093162;28;20463;-89
2022/04/25 08:48:38;;;;;;;12.20;2.53;;;;;;;;;;5088869;28;20023;-86
2022/04/25 08:51:04;;;;;;;94.55;80.90;;;;;;;;;;5091480;28;20035;-88
2022/04/25 08:53:31;;;;;;;16.48;2.83;;;;;;;;;;5088091;28;20111;-87
2022/04/25 08:55:57;;;;;;;20.25;7.30;;;;;;;;;;5092888;28;20028;-87
2022/04/25 08:58:24;;;;;;;15.00;2.55;;;;;;;;;;5092801;28;20020;-86
2022/04/25 09:00:50;;;;;;;12.30;3.50;;;;;;;;;;5091597;28;20066;-87
2022/04/25 09:03:15;;;;;;;18.67;3.17;;;;;;;;;;5088201;28;20536;-85
2022/04/25 09:05:41;;;;;;;15.20;4.20;;;;;;;;;;5091680;28;20053;-86
2022/04/25 09:08:07;;;;;;;10.93;3.33;;;;;;;;;;5092942;28;20067;-85
2022/04/25 09:10:36;;;;;;;13.68;3.55;;;;;;;;;;5093360;28;20068;-89
2022/04/25 09:13:02;;;;;;;21.40;5.60;;;;;;;;;;5092035;28;20027;-90
2022/04/25 09:15:27;;;;;;;16.70;3.00;;;;;;;;;;5092495;28;20020;-89
2022/04/25 09:17:55;;;;;;;12.77;3.35;;;;;;;;;;5093213;28;20128;-87
2022/04/25 09:20:21;;;;;;;15.15;2.95;;;;;;;;;;5091502;28;20028;-90
2022/04/25 09:22:47;;;;;;;10.43;2.75;;;;;;;;;;5091711;28;20044;-87
2022/04/25 09:25:15;;;;;;;12.55;2.90;;;;;;;;;;5091519;28;20043;-88
2022/04/25 09:27:41;;;;;;;14.45;3.88;;;;;;;;;;5092066;28;20020;-86
2022/04/25 09:30:18;;;;;;;10.45;2.17;;;;;;;;;;5090835;28;20038;-85
2022/04/25 09:32:45;;;;;;;14.85;3.60;;;;;;;;;;5090704;28;20491;-88
2022/04/25 09:35:30;;;;;;;14.77;2.60;;;;;;;;;;5089928;28;20415;-85
2022/04/25 09:38:04;;;;;;;12.93;2.47;;;;;;;;;;5101102;28;20020;-87
2022/04/25 09:40:32;;;;;;;19.40;3.50;;;;;;;;;;5106426;28;20429;-87
2022/04/25 09:43:05;;;;;;;14.57;3.20;;;;;;;;;;5090719;28;20024;-87
2022/04/25 09:45:37;;;;;;;13.52;2.40;;;;;;;;;;5088977;28;20045;-86
2022/04/25 09:48:11;;;;;;;11.10;2.72;;;;;;;;;;5091318;28;20039;-88
2022/04/25 09:50:38;;;;;;;8.05;2.55;;;;;;;;;;5089789;28;20107;-88
2022/04/25 09:53:05;;;;;;;14.60;2.80;;;;;;;;;;5090607;28;20027;-89
2022/04/25 09:55:36;;;;;;;11.57;2.15;;;;;;;;;;5090787;28;20023;-89
2022/04/25 09:58:19;;;;;;;13.32;3.78;;;;;;;;;;5090382;28;20078;-89
2022/04/25 10:00:46;;;;;;;8.93;1.80;;;;;;;;;;5089221;28;20371;-88
2022/04/25 10:03:14;;;;;;;12.05;3.25;;;;;;;;;;5089258;28;20035;-88
2022/04/25 10:05:52;;;;;;;12.75;2.80;;;;;;;;;;5091458;28;20028;-89
2022/04/25 10:08:19;;;;;;;12.55;2.30;;;;;;;;;;5095588;28;20020;-89
2022/04/25 10:10:44;;;;;;;12.73;2.55;;;;;;;;;;5096415;28;20051;-91
2022/04/25 10:13:10;;;;;;;16.88;2.63;;;;;;;;;;5095141;28;20056;-88
2022/04/25 10:15:37;;;;;;;12.98;2.50;;;;;;;;;;5094864;28;20085;-87
2022/04/25 10:18:04;;;;;;;14.07;2.40;;;;;;;;;;5093296;28;20013;-87
2022/04/25 10:20:31;;;;;;;12.43;2.58;;;;;;;;;;5094149;28;20043;-87
2022/04/25 10:22:57;;;;;;;6.78;1.98;;;;;;;;;;5095785;28;20036;-87
2022/04/25 10:25:22;;;;;;;10.95;2.53;;;;;;;;;;5095208;28;20360;-86
2022/04/25 10:27:49;;;;;;;13.73;3.10;;;;;;;;;;5093781;28;20027;-86
2022/04/25 10:30:17;;;;;;;11.70;2.13;;;;;;;;;;5094501;28;20051;-86
2022/04/25 10:32:43;;;;;;;9.85;2.25;;;;;;;;;;5095685;28;20032;-86
2022/04/25 10:35:29;;;;;;;16.70;3.25;;;;;;;;;;5092723;28;20076;-86
2022/04/25 10:37:55;;;;;;;13.13;2.83;;;;;;;;;;5092825;28;20503;-88
2022/04/25 10:44:10;;;;;;;12.85;2.42;;;;;;;;;;5095579;28;20031;-87
2022/04/25 10:46:13;;;;;;;11.98;2.08;;;;;;;;;;5093969;28;20035;-86
2022/04/25 10:49:05;;;;;;;12.98;2.33;;;;;;;;;;5094727;28;20032;-84
2022/04/25 10:51:38;;;;;;;9.95;2.10;;;;;;;;;;5092780;28;20028;-87
2022/04/25 10:54:05;;;;;;;12.40;2.28;;;;;;;;;;5095239;28;20032;-85
2022/04/25 10:56:32;;;;;;;12.65;2.38;;;;;;;;;;5094648;28;20032;-87
2022/04/25 10:59:23;;;;;;;6.65;1.70;;;;;;;;;;5083781;28;20058;-87
2022/04/25 11:01:50;;;;;;;10.63;2.25;;;;;;;;;;5085896;28;20058;-86
2022/04/25 11:04:18;;;;;;;12.30;2.30;;;;;;;;;;5090476;28;20043;-86
2022/04/25 11:06:43;;;;;;;16.67;2.08;;;;;;;;;;5092024;28;20070;-85
2022/04/25 11:09:09;;;;;;;9.73;1.90;;;;;;;;;;5094181;28;20031;-85
2022/04/25 11:11:49;;;;;;;5.40;1.45;;;;;;;;;;5094833;28;20052;-86
2022/04/25 11:14:15;;;;;;;;;;;;;;;;;;5095126;28;20023;-87
2022/04/25 11:16:41;;;;;;;10.43;1.88;;;;;;;;;;5087950;28;19916;-85
2022/04/25 11:19:11;;;;;;;12.95;2.10;;;;;;;;;;5093023;28;20058;-88
2022/04/25 11:21:46;;;;;;;9.05;2.20;;;;;;;;;;5094265;28;20020;-86
2022/04/25 11:24:35;;;;;;;9.02;2.15;;;;;;;;;;5093398;28;20060;-87
2022/04/25 11:27:02;;;;;;;8.00;2.75;;;;;;;;;;5093942;28;20028;-87
2022/04/25 11:29:28;;;;;;;13.18;2.47;;;;;;;;;;5090253;28;20035;-86
2022/04/25 11:32:24;;;;;;;15.98;3.20;;;;;;;;;;5092975;28;20032;-86
2022/04/25 11:34:50;;;;;;;7.10;2.30;;;;;;;;;;5094138;28;20043;-87
2022/04/25 11:37:15;;;;;;;12.27;2.25;;;;;;;;;;5092723;28;20535;-86
2022/04/25 11:39:54;;;;;;;10.93;2.80;;;;;;;;;;5093689;28;20036;-85
2022/04/25 11:42:20;;;;;;;9.13;1.92;;;;;;;;;;5089195;28;20031;-83
2022/04/25 11:44:45;;;;;;;8.05;1.60;;;;;;;;;;5093880;28;20028;-87
2022/04/25 11:47:11;;;;;;;7.88;1.60;;;;;;;;;;5092227;28;20032;-86
2022/04/25 11:49:38;;;;;;;8.57;1.88;;;;;;;;;;5090908;28;20052;-84
2022/04/25 11:52:04;;;;;;;12.27;2.00;;;;;;;;;;5088575;28;20032;-87
2022/04/25 11:54:34;;;;;;;11.43;2.45;;;;;;;;;;5092134;28;20111;-86
2022/04/25 11:57:01;;;;;;;9.52;2.15;;;;;;;;;;5093556;28;20028;-85
2022/04/25 11:59:28;;;;;;;7.72;1.75;;;;;;;;;;5091768;28;20102;-84
2022/04/25 12:01:53;;;;;;;8.10;1.45;;;;;;;;;;5093224;28;20024;-87
2022/04/25 12:04:24;;;;;;;8.40;1.50;;;;;;;;;;5088289;28;20035;-86
2022/04/25 12:06:59;;;;;;;6.88;2.00;;;;;;;;;;5085005;28;20028;-84
2022/04/25 12:17:49;;;;;;;9.35;2.22;;;;;;;;;;5092070;28;20034;-88
2022/04/25 12:20:18;;;;;;;6.75;1.55;;;;;;;;;;5088156;28;20035;-88
2022/04/25 12:22:59;;;;;;;5.45;1.30;;;;;;;;;;5088447;28;20028;-85
2022/04/25 12:25:28;;;;;;;7.80;1.48;;;;;;;;;;5092096;28;20032;-87
2022/04/25 12:28:23;;;;;;;9.30;1.80;;;;;;;;;;5090404;28;20062;-86
2022/04/25 12:30:56;;;;;;;6.32;1.38;;;;;;;;;;5088019;28;20063;-86
2022/04/25 12:33:40;;;;;;;7.13;1.60;;;;;;;;;;5090142;28;20137;-84
2022/04/25 12:36:21;;;;;;;4.43;1.10;;;;;;;;;;5090515;28;20052;-83
2022/04/25 12:38:50;;;;;;;5.43;1.40;;;;;;;;;;5092247;28;20069;-86
2022/04/25 12:41:39;;;;;;;5.30;1.42;;;;;;;;;;5092486;28;20032;-85
2022/04/25 12:44:10;;;;;;;10.52;1.88;;;;;;;;;;5090186;28;20090;-83
2022/04/25 12:46:48;;;;;;;5.50;1.77;;;;;;;;;;5090970;28;20062;-84
2022/04/25 12:49:15;;;;;;;9.55;1.60;;;;;;;;;;5090437;28;20028;-84
2022/04/25 12:51:57;;;;;;;6.88;1.67;;;;;;;;;;5089889;28;20032;-87
2022/04/25 12:54:30;;;;;;;9.65;1.52;;;;;;;;;;5091353;28;20414;-83
2022/04/25 12:57:05;;;;;;;6.45;1.40;;;;;;;;;;5092036;28;20077;-85
2022/04/25 12:59:32;;;;;;;12.88;1.63;;;;;;;;;;5087684;28;20058;-83
2022/04/25 13:02:07;;;;;;;8.65;1.63;;;;;;;;;;5086509;28;20081;-86
2022/04/25 13:04:52;;;;;;;8.65;1.90;;;;;;;;;;5088944;28;20468;-86
2022/04/25 13:07:20;;;;;;;4.35;2.17;;;;;;;;;;5089828;28;20085;-86
2022/04/25 13:09:46;;;;;;;8.27;1.70;;;;;;;;;;5090627;28;20391;-84
2022/04/25 13:12:17;;;;;;;5.95;1.10;;;;;;;;;;5089717;28;20103;-84
2022/04/25 13:14:43;;;;;;;8.32;1.25;;;;;;;;;;5089582;28;20036;-83
2022/04/25 13:17:09;;;;;;;10.60;2.22;;;;;;;;;;5091517;28;20039;-83
2022/04/25 13:19:35;;;;;;;8.32;1.52;;;;;;;;;;5091898;28;20416;-87
2022/04/25 13:22:04;;;;;;;6.03;1.17;;;;;;;;;;5089121;28;20059;-86
2022/04/25 13:24:29;;;;;;;4.63;1.20;;;;;;;;;;5087997;28;20085;-84
2022/04/25 13:26:56;;;;;;;9.07;2.92;;;;;;;;;;5088520;28;20028;-86
2022/04/25 13:29:21;;;;;;;6.25;1.20;;;;;;;;;;5090301;28;20107;-89
2022/04/25 13:31:47;;;;;;;4.93;1.15;;;;;;;;;;5087549;28;20124;-86
2022/04/25 13:34:12;;;;;;;6.85;1.83;;;;;;;;;;5087114;28;20039;-87
2022/04/25 13:36:38;;;;;;;8.45;1.70;;;;;;;;;;5087722;28;20499;-87
2022/04/25 13:39:04;;;;;;;5.25;1.80;;;;;;;;;;5081345;28;20479;-87
2022/04/25 13:41:30;;;;;;;6.97;1.23;;;;;;;;;;5088221;28;20032;-85
2022/04/25 13:43:56;;;;;;;5.10;1.30;;;;;;;;;;5089373;28;20020;-85
2022/04/25 13:46:22;;;;;;;4.15;1.23;;;;;;;;;;5089201;28;20023;-85
2022/04/25 13:48:48;;;;;;;6.30;1.35;;;;;;;;;;5090703;28;20028;-85
2022/04/25 13:51:14;;;;;;;6.18;1.58;;;;;;;;;;5091511;28;20035;-87
2022/04/25 13:53:41;;;;;;;5.80;1.35;;;;;;;;;;5091140;28;20040;-86
2022/04/25 13:56:08;;;;;;;6.65;1.60;;;;;;;;;;5088823;28;20153;-86
2022/04/25 13:58:38;;;;;;;7.25;1.40;;;;;;;;;;5091193;28;20499;-87
2022/04/25 14:01:05;;;;;;;5.60;1.40;;;;;;;;;;5090021;28;20157;-84
2022/04/25 14:03:31;;;;;;;4.50;1.45;;;;;;;;;;5090604;28;20181;-85
2022/04/25 14:05:57;;;;;;;6.53;1.15;;;;;;;;;;5089863;28;20099;-86
2022/04/25 14:08:24;;;;;;;7.63;1.73;;;;;;;;;;5089279;28;20170;-86
2022/04/25 14:10:52;;;;;;;6.55;1.77;;;;;;;;;;5087711;28;20039;-86
2022/04/25 14:13:19;;;;;;;5.68;1.38;;;;;;;;;;5089124;28;20031;-87
2022/04/25 14:15:45;;;;;;;4.30;1.30;;;;;;;;;;5089936;28;20043;-86
2022/04/25 14:18:11;;;;;;;3.00;1.00;;;;;;;;;;5089683;28;20016;-87
2022/04/25 14:20:38;;;;;;;6.50;1.25;;;;;;;;;;5088176;28;20123;-88
2022/04/25 14:23:05;;;;;;;5.70;1.08;;;;;;;;;;5091221;28;20024;-87
2022/04/25 14:25:31;;;;;;;4.75;2.10;;;;;;;;;;5090336;28;20024;-82
2022/04/25 14:27:59;;;;;;;7.75;1.60;;;;;;;;;;5089420;28;20494;-86
2022/04/25 14:30:26;;;;;;;6.10;1.70;;;;;;;;;;5088485;28;20137;-82
2022/04/25 14:32:52;;;;;;;7.25;1.60;;;;;;;;;;5085536;28;20039;-82
2022/04/25 14:35:19;;;;;;;6.30;1.40;;;;;;;;;;5087327;28;20024;-82
2022/04/25 14:37:45;;;;;;;5.15;1.40;;;;;;;;;;5088574;28;20482;-85
2022/04/25 14:40:12;;;;;;;7.05;1.33;;;;;;;;;;5086294;28;20098;-85
2022/04/25 14:42:38;;;;;;;6.78;1.50;;;;;;;;;;5088189;28;20017;-89
2022/04/25 14:45:04;;;;;;;5.55;1.30;;;;;;;;;;5089275;28;20031;-84
2022/04/25 14:47:30;;;;;;;4.78;1.40;;;;;;;;;;5089091;28;20020;-85
2022/04/25 14:55:24;;;;;;;6.90;1.20;;;;;;;;;;5094207;28;20031;-85
2022/04/25 14:57:50;;;;;;;3.33;1.10;;;;;;;;;;5093531;28;20020;-88
2022/04/25 15:00:16;;;;;;;5.10;1.40;;;;;;;;;;5093611;28;20024;-88
2022/04/25 15:02:42;;;;;;;5.00;1.10;;;;;;;;;;5094799;28;20038;-87
2022/04/25 15:05:08;;;;;;;8.05;1.30;;;;;;;;;;5093553;28;20039;-87
2022/04/25 15:07:33;;;;;;;4.32;1.50;;;;;;;;;;5094949;28;20031;-85
2022/04/25 15:09:58;;;;;;;5.45;1.20;;;;;;;;;;5096497;28;20028;-88
2022/04/25 15:12:24;;;;;;;4.80;1.50;;;;;;;;;;5093376;28;20024;-86
2022/04/25 15:14:49;;;;;;;5.75;1.08;;;;;;;;;;5093466;28;20031;-85
2022/04/25 15:17:15;;;;;;;5.38;2.08;;;;;;;;;;5091182;28;20153;-86
2022/04/25 15:19:40;;;;;;;5.57;1.67;;;;;;;;;;5094054;28;20032;-87
2022/04/25 15:22:06;;;;;;;8.85;1.73;;;;;;;;;;5094692;28;20024;-84
2022/04/25 15:24:32;;;;;;;5.93;1.30;;;;;;;;;;5093690;28;20023;-87
2022/04/25 15:26:57;;;;;;;3.25;1.20;;;;;;;;;;5093918;28;20028;-84
2022/04/25 15:29:22;;;;;;;4.78;2.25;;;;;;;;;;5093120;28;20051;-85
2022/04/25 15:31:48;;;;;;;5.50;1.23;;;;;;;;;;5093312;28;20035;-86
2022/04/25 15:34:14;;;;;;;5.97;1.25;;;;;;;;;;5092287;28;20024;-86